Time;durP1;ratioP1;P1;durP2;ratioP2;P2;SDS_P1;SDS_P2;PMS_P1;PMS_P2;Temp;Humidity;BMP_temperature;BMP_pressure;BME280_temperature;BME280_humidity;BME280_pressure;Samples;Min_cycle;Max_cycle;Signal;HPM_P1;HPM_P2
2021/08/20 00:00:34;;;;;;;12.32;10.80;;;16.30;90.30;;;;;;5098358;28;20035;-77
2021/08/20 00:03:00;;;;;;;14.48;10.55;;;16.30;90.30;;;;;;5097764;28;20024;-78
2021/08/20 00:05:26;;;;;;;12.18;10.40;;;16.30;90.20;;;;;;5097645;28;20190;-77
2021/08/20 00:07:51;;;;;;;12.73;11.13;;;16.30;90.20;;;;;;5080593;28;20055;-78
2021/08/20 00:10:17;;;;;;;13.65;10.55;;;16.30;90.20;;;;;;5093124;28;20032;-78
2021/08/20 00:12:44;;;;;;;11.27;9.82;;;16.30;90.10;;;;;;5084322;28;20100;-78
2021/08/20 00:15:10;;;;;;;13.23;10.15;;;16.40;90.20;;;;;;5116590;28;20032;-81
2021/08/20 00:17:36;;;;;;;10.70;9.65;;;16.30;90.10;;;;;;5115757;28;20040;-78
2021/08/20 00:20:03;;;;;;;13.80;10.30;;;16.30;90.10;;;;;;5114753;28;20061;-77
2021/08/20 00:22:28;;;;;;;12.40;10.27;;;16.30;90.10;;;;;;5114404;28;20024;-77
2021/08/20 00:24:54;;;;;;;12.75;10.52;;;16.30;90.00;;;;;;5114765;28;20077;-77
2021/08/20 00:27:20;;;;;;;13.77;11.90;;;16.30;90.00;;;;;;5115680;28;20107;-78
2021/08/20 00:29:45;;;;;;;13.60;11.07;;;16.30;90.00;;;;;;5097459;28;20050;-77
2021/08/20 00:32:11;;;;;;;13.05;10.25;;;16.40;90.00;;;;;;5114304;28;20428;-82
2021/08/20 00:34:37;;;;;;;13.48;11.60;;;16.40;89.90;;;;;;5115687;28;20433;-77
2021/08/20 00:37:03;;;;;;;16.67;11.77;;;16.30;89.80;;;;;;5097639;28;20047;-78
2021/08/20 00:39:29;;;;;;;16.48;11.98;;;16.30;89.90;;;;;;5096846;28;20498;-77
2021/08/20 00:41:54;;;;;;;15.77;11.85;;;16.20;90.00;;;;;;5096869;28;20023;-77
2021/08/20 00:44:23;;;;;;;15.02;12.15;;;16.10;90.10;;;;;;5114089;28;20024;-77
2021/08/20 00:46:49;;;;;;;14.98;12.27;;;16.00;90.10;;;;;;5114819;28;20063;-77
2021/08/20 00:49:15;;;;;;;14.25;11.90;;;15.90;90.20;;;;;;5114570;28;20027;-78
2021/08/20 00:51:42;;;;;;;15.70;12.43;;;15.80;90.40;;;;;;5114539;28;20027;-76
2021/08/20 00:54:11;;;;;;;15.27;12.32;;;15.70;90.50;;;;;;5114631;28;20057;-77
2021/08/20 00:56:38;;;;;;;18.55;13.27;;;15.70;90.60;;;;;;5112715;28;20023;-77
2021/08/20 00:59:05;;;;;;;16.98;13.18;;;15.60;90.70;;;;;;5104227;28;20714;-78
2021/08/20 01:01:31;;;;;;;15.38;13.20;;;15.60;90.80;;;;;;5103193;28;20028;-78
2021/08/20 01:03:57;;;;;;;17.83;13.57;;;15.50;90.80;;;;;;5092432;28;20028;-77
2021/08/20 01:06:25;;;;;;;18.17;13.40;;;15.50;90.90;;;;;;5075441;28;20479;-77
2021/08/20 01:08:51;;;;;;;18.88;13.85;;;15.50;90.90;;;;;;5106896;28;20060;-76
2021/08/20 01:11:18;;;;;;;17.23;13.90;;;15.50;91.00;;;;;;5115247;28;20368;-81
2021/08/20 01:13:43;;;;;;;19.75;14.70;;;15.50;91.00;;;;;;5115552;28;20131;-77
2021/08/20 01:16:09;;;;;;;19.33;13.55;;;15.50;91.10;;;;;;5114143;28;20051;-78
2021/08/20 01:18:37;;;;;;;15.10;13.50;;;15.50;91.10;;;;;;5114202;28;20071;-79
2021/08/20 01:21:09;;;;;;;17.52;13.18;;;15.50;91.10;;;;;;5115350;28;20027;-78
2021/08/20 01:23:36;;;;;;;15.07;12.73;;;15.50;91.00;;;;;;5113846;28;20022;-77
2021/08/20 01:26:02;;;;;;;17.17;13.07;;;15.50;91.00;;;;;;5117256;28;20049;-79
2021/08/20 01:28:28;;;;;;;15.90;12.50;;;15.50;91.00;;;;;;5117412;28;20027;-77
2021/08/20 01:31:11;;;;;;;15.38;12.70;;;15.40;91.10;;;;;;5098772;28;20458;-77
2021/08/20 01:33:38;;;;;;;14.48;12.10;;;15.40;91.10;;;;;;5119765;28;20173;-76
2021/08/20 01:36:04;;;;;;;14.23;12.25;;;15.40;91.10;;;;;;5119247;28;20099;-77
2021/08/20 01:38:31;;;;;;;14.60;12.13;;;15.30;91.20;;;;;;5115235;28;20424;-77
2021/08/20 01:40:57;;;;;;;16.00;13.18;;;15.30;91.20;;;;;;5113891;28;20072;-78
2021/08/20 01:43:23;;;;;;;16.50;12.25;;;15.30;91.20;;;;;;5096233;28;20024;-79
2021/08/20 01:45:50;;;;;;;18.25;12.63;;;15.30;91.20;;;;;;5114590;28;20469;-78
2021/08/20 01:48:15;;;;;;;16.45;13.00;;;15.30;91.30;;;;;;5114736;28;20031;-78
2021/08/20 01:50:42;;;;;;;14.98;13.20;;;15.30;91.30;;;;;;5112697;28;20034;-78
2021/08/20 01:53:13;;;;;;;15.73;12.60;;;15.30;91.20;;;;;;5114683;28;20035;-77
2021/08/20 01:55:44;;;;;;;14.32;12.82;;;15.30;91.20;;;;;;5113260;28;20024;-77
2021/08/20 01:58:11;;;;;;;16.95;12.77;;;15.40;91.20;;;;;;5112817;28;20055;-77
2021/08/20 02:00:38;;;;;;;15.27;12.68;;;15.40;91.10;;;;;;5112576;28;20038;-77
2021/08/20 02:03:03;;;;;;;13.68;12.25;;;15.40;91.10;;;;;;5112975;28;20070;-77
2021/08/20 02:05:29;;;;;;;15.48;12.82;;;15.40;91.00;;;;;;5112524;28;20464;-78
2021/08/20 02:07:55;;;;;;;14.45;11.65;;;15.40;90.90;;;;;;5095719;28;20519;-79
2021/08/20 02:10:21;;;;;;;15.20;11.93;;;15.40;90.90;;;;;;5096699;28;20059;-79
2021/08/20 02:12:46;;;;;;;15.55;12.27;;;15.40;90.90;;;;;;5093050;28;20472;-78
2021/08/20 02:15:12;;;;;;;14.57;11.90;;;15.40;90.80;;;;;;5108914;28;20044;-78
2021/08/20 02:17:38;;;;;;;19.63;11.57;;;15.40;90.80;;;;;;5112574;28;20066;-78
2021/08/20 02:20:05;;;;;;;15.07;12.00;;;15.40;90.90;;;;;;5106854;28;20035;-80
2021/08/20 02:22:30;;;;;;;16.95;12.18;;;15.40;90.80;;;;;;5121852;28;20031;-78
2021/08/20 02:24:56;;;;;;;12.65;11.15;;;15.40;90.80;;;;;;5091957;28;20024;-79
2021/08/20 02:27:22;;;;;;;14.02;11.00;;;15.30;90.80;;;;;;5090471;28;20384;-78
2021/08/20 02:29:48;;;;;;;14.23;12.38;;;15.30;90.90;;;;;;5107927;28;20024;-78
2021/08/20 02:32:13;;;;;;;15.07;13.20;;;15.30;90.80;;;;;;5108197;28;20020;-84
2021/08/20 02:34:39;;;;;;;15.35;11.80;;;15.30;90.80;;;;;;5109543;28;20471;-78
2021/08/20 02:37:05;;;;;;;20.33;15.45;;;15.30;90.70;;;;;;5078205;28;20152;-77
2021/08/20 02:39:30;;;;;;;15.68;12.98;;;15.40;90.80;;;;;;5112152;28;20027;-78
2021/08/20 02:41:56;;;;;;;14.32;11.20;;;15.40;90.70;;;;;;5097298;28;20440;-77
2021/08/20 02:44:22;;;;;;;15.25;12.60;;;15.40;90.70;;;;;;5074946;28;20057;-78
2021/08/20 02:46:47;;;;;;;17.52;14.20;;;15.40;90.60;;;;;;5090285;28;20015;-77
2021/08/20 02:49:13;;;;;;;16.52;14.27;;;15.50;90.60;;;;;;5094797;28;20383;-79
2021/08/20 02:51:39;;;;;;;16.27;13.88;;;15.50;90.60;;;;;;5111205;28;20405;-78
2021/08/20 02:54:05;;;;;;;14.80;13.13;;;15.60;90.60;;;;;;5111754;28;20114;-78
2021/08/20 02:56:30;;;;;;;16.30;12.57;;;15.60;90.50;;;;;;5110872;28;20036;-80
2021/08/20 02:58:56;;;;;;;13.95;11.35;;;15.60;90.40;;;;;;5094541;28;20138;-78
2021/08/20 03:01:22;;;;;;;16.17;12.05;;;15.70;90.40;;;;;;5111657;28;20028;-77
2021/08/20 03:03:48;;;;;;;14.43;11.98;;;15.80;90.40;;;;;;5111610;28;20019;-78
2021/08/20 03:06:14;;;;;;;16.15;12.13;;;15.80;90.30;;;;;;5112664;28;20027;-78
2021/08/20 03:08:40;;;;;;;12.73;10.45;;;15.80;90.30;;;;;;5111022;28;20051;-78
2021/08/20 03:11:06;;;;;;;11.82;10.63;;;15.80;90.20;;;;;;5111568;28;20603;-78
2021/08/20 03:13:31;;;;;;;19.48;12.63;;;15.90;90.20;;;;;;5077461;28;20547;-81
2021/08/20 03:15:57;;;;;;;14.73;11.00;;;15.90;90.20;;;;;;5113046;28;20383;-78
2021/08/20 03:18:23;;;;;;;12.35;9.55;;;15.90;90.20;;;;;;5077715;28;20399;-78
2021/08/20 03:20:49;;;;;;;11.80;9.10;;;15.90;90.20;;;;;;5127897;28;20032;-78
2021/08/20 03:23:16;;;;;;;10.95;9.23;;;15.90;90.20;;;;;;5092943;28;20031;-78
2021/08/20 03:25:41;;;;;;;11.85;9.82;;;15.90;90.20;;;;;;5111766;28;20027;-79
2021/08/20 03:28:07;;;;;;;15.52;9.10;;;15.90;90.20;;;;;;5094968;28;20081;-77
2021/08/20 03:30:34;;;;;;;12.23;10.52;;;15.90;90.20;;;;;;5112279;28;20546;-82
2021/08/20 03:33:00;;;;;;;11.82;9.90;;;15.90;90.30;;;;;;5114349;28;20464;-78
2021/08/20 03:35:26;;;;;;;10.20;8.73;;;15.90;90.30;;;;;;5113994;28;20054;-80
2021/08/20 03:37:52;;;;;;;10.63;9.52;;;15.90;90.30;;;;;;5134457;28;20036;-81
2021/08/20 03:40:18;;;;;;;12.20;9.43;;;15.90;90.30;;;;;;5135762;28;20027;-79
2021/08/20 03:42:43;;;;;;;12.35;9.30;;;15.90;90.30;;;;;;5135464;28;20075;-82
2021/08/20 03:45:11;;;;;;;11.63;8.85;;;15.90;90.30;;;;;;5113752;28;20028;-80
2021/08/20 03:47:37;;;;;;;10.38;9.25;;;15.90;90.30;;;;;;5132728;28;20077;-85
2021/08/20 03:50:04;;;;;;;12.63;9.57;;;15.90;90.40;;;;;;5097008;28;20413;-78
2021/08/20 03:52:29;;;;;;;11.07;9.57;;;15.90;90.40;;;;;;5115992;28;20026;-78
2021/08/20 03:54:55;;;;;;;12.25;9.52;;;15.90;90.40;;;;;;5116250;28;20422;-78
2021/08/20 03:57:21;;;;;;;11.35;9.90;;;15.90;90.40;;;;;;5117170;28;20163;-76
2021/08/20 03:59:46;;;;;;;12.50;9.27;;;15.90;90.40;;;;;;5116573;28;20107;-77
2021/08/20 04:02:12;;;;;;;10.00;8.38;;;15.90;90.50;;;;;;5115887;28;20047;-76
2021/08/20 04:04:38;;;;;;;10.95;8.77;;;16.00;90.40;;;;;;5114538;28;20395;-81
2021/08/20 04:07:03;;;;;;;11.63;8.90;;;15.90;90.40;;;;;;5114794;28;20489;-78
2021/08/20 04:09:29;;;;;;;9.57;8.27;;;15.90;90.50;;;;;;5115295;28;20351;-77
2021/08/20 04:11:55;;;;;;;10.60;8.38;;;15.90;90.50;;;;;;5097528;28;20465;-77
2021/08/20 04:14:21;;;;;;;9.80;8.45;;;15.90;90.60;;;;;;5114908;28;20476;-78
2021/08/20 04:16:47;;;;;;;10.48;8.77;;;15.80;90.60;;;;;;5115969;28;20463;-76
2021/08/20 04:19:12;;;;;;;11.18;7.95;;;15.80;90.60;;;;;;5115412;28;20148;-77
2021/08/20 04:21:38;;;;;;;12.43;8.10;;;15.80;90.60;;;;;;5113850;28;20459;-82
2021/08/20 04:24:06;;;;;;;10.25;8.45;;;15.80;90.70;;;;;;5080461;28;20459;-78
2021/08/20 04:26:32;;;;;;;10.85;8.10;;;15.80;90.70;;;;;;5114174;28;20035;-77
2021/08/20 04:28:57;;;;;;;10.65;8.20;;;15.80;90.70;;;;;;5115360;28;20471;-78
2021/08/20 04:31:23;;;;;;;8.95;7.43;;;15.80;90.70;;;;;;5114299;28;20024;-79
2021/08/20 04:33:49;;;;;;;11.68;7.75;;;15.80;90.80;;;;;;5113124;28;20118;-79
2021/08/20 04:36:14;;;;;;;10.32;7.80;;;15.80;90.80;;;;;;5079756;28;20058;-77
2021/08/20 04:38:40;;;;;;;9.75;8.23;;;15.80;90.80;;;;;;5092644;28;20031;-80
2021/08/20 04:41:07;;;;;;;8.73;7.82;;;15.90;90.90;;;;;;5092857;28;20064;-78
2021/08/20 04:43:35;;;;;;;8.90;7.32;;;15.90;90.90;;;;;;5094521;28;20016;-79
2021/08/20 04:46:01;;;;;;;10.77;8.23;;;15.90;90.90;;;;;;5113188;28;20020;-79
2021/08/20 04:48:27;;;;;;;10.88;7.47;;;15.90;90.90;;;;;;5105917;28;20031;-77
2021/08/20 04:50:53;;;;;;;8.88;7.10;;;15.90;91.00;;;;;;5096903;28;20475;-77
2021/08/20 04:53:19;;;;;;;8.57;7.47;;;16.00;91.00;;;;;;5113113;28;20042;-77
2021/08/20 04:55:46;;;;;;;11.23;8.45;;;16.00;90.90;;;;;;5114858;28;20023;-77
2021/08/20 04:58:11;;;;;;;10.52;8.30;;;16.00;90.90;;;;;;5096666;28;20084;-78
2021/08/20 05:00:37;;;;;;;9.77;7.60;;;16.00;90.90;;;;;;5113884;28;20122;-78
2021/08/20 05:03:05;;;;;;;9.88;7.90;;;16.00;91.00;;;;;;5095879;28;20027;-79
2021/08/20 05:05:30;;;;;;;11.52;7.88;;;16.00;91.00;;;;;;5114453;28;20028;-78
2021/08/20 05:07:56;;;;;;;9.43;7.47;;;16.00;91.00;;;;;;5096040;28;20150;-77
2021/08/20 05:10:22;;;;;;;10.15;7.47;;;16.10;91.00;;;;;;5113422;28;20035;-77
2021/08/20 05:12:47;;;;;;;9.77;7.55;;;16.10;91.00;;;;;;5086077;28;20028;-78
2021/08/20 05:15:13;;;;;;;9.63;7.63;;;16.10;91.00;;;;;;5093000;28;20103;-78
2021/08/20 05:17:39;;;;;;;9.68;7.85;;;16.10;91.00;;;;;;5113081;28;20390;-78
2021/08/20 05:20:05;;;;;;;9.90;7.50;;;16.20;91.00;;;;;;5113112;28;20260;-77
2021/08/20 05:22:45;;;;;;;10.30;7.55;;;16.30;91.00;;;;;;5096488;28;20102;-77
2021/08/20 05:25:11;;;;;;;9.80;7.57;;;16.30;90.90;;;;;;5114103;28;20028;-77
2021/08/20 05:27:37;;;;;;;13.32;8.35;;;16.40;90.90;;;;;;5113525;28;20068;-77
2021/08/20 05:30:03;;;;;;;11.73;8.05;;;16.40;90.90;;;;;;5096388;28;20104;-78
2021/08/20 05:32:29;;;;;;;10.95;7.93;;;16.50;90.80;;;;;;5113813;28;20027;-78
2021/08/20 05:34:54;;;;;;;11.35;7.70;;;16.50;90.80;;;;;;5079682;28;20036;-77
2021/08/20 05:37:20;;;;;;;12.10;8.48;;;16.60;90.70;;;;;;5092680;28;20042;-78
2021/08/20 05:39:46;;;;;;;10.68;8.75;;;16.70;90.70;;;;;;5112310;28;20036;-77
2021/08/20 05:42:11;;;;;;;11.70;8.38;;;16.80;90.60;;;;;;5114052;28;20038;-79
2021/08/20 05:44:37;;;;;;;12.15;9.10;;;16.80;90.60;;;;;;5111849;28;20373;-79
2021/08/20 05:47:03;;;;;;;12.40;9.15;;;16.80;90.50;;;;;;5112869;28;20031;-78
2021/08/20 05:49:28;;;;;;;11.13;8.50;;;16.80;90.50;;;;;;5112135;28;20031;-78
2021/08/20 05:51:54;;;;;;;11.80;8.57;;;16.80;90.50;;;;;;5094290;28;20209;-78
2021/08/20 05:54:20;;;;;;;12.38;8.93;;;16.90;90.50;;;;;;5110345;28;20031;-77
2021/08/20 05:56:46;;;;;;;13.93;9.35;;;16.90;90.40;;;;;;5109877;28;20072;-77
2021/08/20 05:59:12;;;;;;;11.55;8.90;;;17.10;90.40;;;;;;5111126;28;20500;-80
2021/08/20 06:01:37;;;;;;;12.95;9.30;;;17.20;90.30;;;;;;5093320;28;20036;-78
2021/08/20 06:04:04;;;;;;;10.68;9.18;;;17.50;90.20;;;;;;5111058;27;20067;-76
2021/08/20 06:06:30;;;;;;;12.68;9.43;;;17.70;89.60;;;;;;5110580;28;20019;-78
2021/08/20 06:08:55;;;;;;;12.07;9.02;;;18.00;88.90;;;;;;5109126;28;20061;-77
2021/08/20 06:11:21;;;;;;;12.60;8.93;;;18.40;88.10;;;;;;5112303;28;20062;-78
2021/08/20 06:13:49;;;;;;;11.52;8.88;;;19.00;86.20;;;;;;5109696;28;20456;-79
2021/08/20 06:16:16;;;;;;;15.02;8.50;;;19.40;84.20;;;;;;5110988;28;20028;-78
2021/08/20 06:18:41;;;;;;;11.63;7.80;;;20.00;82.70;;;;;;5091701;28;20032;-78
2021/08/20 06:21:08;;;;;;;12.02;8.50;;;20.60;81.00;;;;;;5074693;28;20101;-78
2021/08/20 06:23:34;;;;;;;9.75;7.95;;;20.80;79.40;;;;;;5093255;28;20028;-78
2021/08/20 06:25:59;;;;;;;9.32;7.60;;;21.20;78.10;;;;;;5093087;28;20082;-76
2021/08/20 06:28:25;;;;;;;9.25;7.40;;;22.00;76.50;;;;;;5109149;28;20036;-77
2021/08/20 06:30:51;;;;;;;9.60;6.57;;;22.90;74.30;;;;;;5093345;28;20460;-78
2021/08/20 06:33:17;;;;;;;6.97;5.95;;;23.70;71.90;;;;;;5091458;28;20078;-78
2021/08/20 06:35:43;;;;;;;8.00;6.03;;;24.40;70.00;;;;;;5091557;28;20111;-77
2021/08/20 06:38:09;;;;;;;6.38;4.97;;;24.90;68.00;;;;;;5074160;28;20119;-79
2021/08/20 06:40:35;;;;;;;7.55;5.93;;;25.30;66.60;;;;;;5074620;28;20454;-78
2021/08/20 06:43:01;;;;;;;6.97;5.68;;;25.70;65.10;;;;;;5090068;28;20059;-78
2021/08/20 06:45:27;;;;;;;8.52;5.70;;;25.40;65.20;;;;;;5093556;28;20100;-77
2021/08/20 06:47:53;;;;;;;6.70;5.43;;;24.70;65.90;;;;;;5095030;28;20434;-78
2021/08/20 06:50:19;;;;;;;9.90;5.93;;;24.00;67.70;;;;;;5110943;28;20031;-78
2021/08/20 06:52:44;;;;;;;8.18;6.32;;;23.30;69.20;;;;;;5113031;28;20364;-77
2021/08/20 06:55:10;;;;;;;10.70;6.85;;;22.70;70.70;;;;;;5111955;28;20031;-78
2021/08/20 06:57:36;;;;;;;10.90;8.02;;;22.20;72.10;;;;;;5111318;28;20372;-78
2021/08/20 07:00:04;;;;;;;8.13;6.80;;;21.90;73.30;;;;;;5077256;28;20032;-77
2021/08/20 07:02:29;;;;;;;9.50;7.38;;;21.60;74.30;;;;;;5112383;28;20051;-76
2021/08/20 07:04:55;;;;;;;10.65;8.25;;;21.20;75.20;;;;;;5111056;28;20156;-78
2021/08/20 07:07:21;;;;;;;10.68;7.43;;;21.00;76.20;;;;;;5110800;28;20048;-76
2021/08/20 07:09:46;;;;;;;8.63;6.95;;;20.80;76.90;;;;;;5112612;28;20516;-78
2021/08/20 07:12:12;;;;;;;9.85;7.55;;;20.80;77.30;;;;;;5110862;28;20035;-77
2021/08/20 07:14:37;;;;;;;9.13;7.93;;;20.70;77.70;;;;;;5111222;28;20459;-78
2021/08/20 07:17:03;;;;;;;9.10;7.05;;;20.60;78.10;;;;;;5110759;28;20459;-77
2021/08/20 07:19:29;;;;;;;13.15;8.20;;;20.60;78.20;;;;;;5092872;28;20028;-76
2021/08/20 07:21:54;;;;;;;10.93;7.10;;;20.60;78.40;;;;;;5072822;28;20031;-78
2021/08/20 07:24:20;;;;;;;11.90;9.02;;;20.50;78.70;;;;;;5108988;28;20039;-77
2021/08/20 07:26:46;;;;;;;8.82;7.07;;;20.40;78.90;;;;;;5108507;28;20464;-77
2021/08/20 07:29:11;;;;;;;10.88;8.05;;;20.40;79.30;;;;;;5094584;28;20044;-77
2021/08/20 07:31:37;;;;;;;10.77;7.40;;;20.30;79.70;;;;;;5089156;28;20032;-79
2021/08/20 07:34:03;;;;;;;8.48;6.97;;;20.20;80.00;;;;;;5111318;28;20035;-78
2021/08/20 07:36:28;;;;;;;9.43;6.68;;;20.30;80.20;;;;;;5105381;28;20023;-77
2021/08/20 07:38:54;;;;;;;9.32;6.00;;;20.40;80.10;;;;;;5094420;28;20446;-78
2021/08/20 07:41:20;;;;;;;5.45;4.95;;;20.70;79.80;;;;;;5103588;28;20032;-78
2021/08/20 07:43:46;;;;;;;7.60;5.07;;;21.00;79.10;;;;;;5125178;27;20058;-78
2021/08/20 07:46:11;;;;;;;7.00;5.10;;;21.00;78.50;;;;;;5113050;28;20149;-78
2021/08/20 07:48:37;;;;;;;7.25;5.20;;;21.10;78.40;;;;;;5110797;28;20084;-78
2021/08/20 07:51:03;;;;;;;6.32;4.85;;;21.10;78.40;;;;;;5112803;28;20123;-85
2021/08/20 07:53:29;;;;;;;5.72;5.13;;;21.10;78.50;;;;;;5114752;28;20032;-78
2021/08/20 07:55:56;;;;;;;5.60;4.15;;;21.00;78.80;;;;;;5097092;28;20030;-78
2021/08/20 07:58:21;;;;;;;5.85;4.00;;;21.20;79.20;;;;;;5090661;28;20352;-78
2021/08/20 08:00:47;;;;;;;5.38;4.13;;;21.60;78.50;;;;;;5086808;28;20031;-78
2021/08/20 08:03:13;;;;;;;4.80;4.18;;;21.90;77.30;;;;;;5083104;28;20505;-77
2021/08/20 08:05:38;;;;;;;9.65;7.47;;;22.00;76.60;;;;;;5095987;28;20460;-76
2021/08/20 08:08:04;;;;;;;6.00;5.25;;;21.90;76.60;;;;;;5106363;28;20059;-77
2021/08/20 08:10:30;;;;;;;6.78;4.50;;;21.80;77.10;;;;;;5099351;28;20024;-77
2021/08/20 08:12:56;;;;;;;8.45;4.90;;;21.60;78.00;;;;;;5098829;28;20571;-79
2021/08/20 08:15:22;;;;;;;6.32;5.50;;;21.30;79.10;;;;;;5114408;28;20028;-75
2021/08/20 08:17:47;;;;;;;4.50;3.75;;;21.00;80.10;;;;;;5100327;28;20073;-76
2021/08/20 08:20:15;;;;;;;4.28;3.00;;;21.00;80.90;;;;;;5117182;28;20031;-76
2021/08/20 08:22:41;;;;;;;5.50;3.80;;;21.10;81.10;;;;;;5122709;28;20015;-75
2021/08/20 08:25:07;;;;;;;3.85;3.45;;;21.40;80.90;;;;;;5121546;28;20023;-75
2021/08/20 08:27:48;;;;;;;5.32;3.60;;;21.60;80.50;;;;;;5115225;28;20027;-76
2021/08/20 08:30:14;;;;;;;6.18;4.45;;;21.70;79.90;;;;;;5114476;28;20016;-77
2021/08/20 08:32:39;;;;;;;5.63;5.13;;;21.60;79.90;;;;;;5098160;28;20168;-77
2021/08/20 08:35:06;;;;;;;2.20;1.70;;;21.40;80.00;;;;;;5087618;28;20490;-77
2021/08/20 08:37:31;;;;;;;5.40;4.85;;;21.20;80.60;;;;;;5093149;28;20111;-77
2021/08/20 08:39:57;;;;;;;4.00;3.33;;;21.00;81.50;;;;;;5094181;28;20111;-78
2021/08/20 08:42:22;;;;;;;3.38;2.67;;;20.80;82.10;;;;;;5077354;28;20029;-76
2021/08/20 08:44:48;;;;;;;4.78;3.80;;;20.70;82.50;;;;;;5110893;28;20016;-77
2021/08/20 08:47:16;;;;;;;4.82;3.15;;;20.70;82.80;;;;;;5096589;28;20023;-80
2021/08/20 08:49:43;;;;;;;4.07;3.13;;;20.60;83.00;;;;;;5115156;28;20023;-79
2021/08/20 08:52:09;;;;;;;5.68;5.10;;;20.60;83.30;;;;;;5115187;28;20023;-79
2021/08/20 08:54:35;;;;;;;6.25;5.63;;;20.40;83.60;;;;;;5106099;28;20070;-77
2021/08/20 08:57:00;;;;;;;8.50;7.63;;;20.40;83.90;;;;;;5103153;28;20036;-78
2021/08/20 08:59:26;;;;;;;11.25;8.52;;;20.30;84.10;;;;;;5088270;28;20452;-79
2021/08/20 09:01:52;;;;;;;11.88;10.65;;;20.20;84.40;;;;;;5099740;28;20088;-79
2021/08/20 09:04:21;;;;;;;9.60;8.10;;;20.20;84.40;;;;;;5105669;28;20032;-79
2021/08/20 09:06:54;;;;;;;12.48;9.80;;;20.40;84.60;;;;;;5113818;28;20400;-78
2021/08/20 09:09:22;;;;;;;7.03;6.32;;;20.50;84.20;;;;;;5113986;28;20032;-79
2021/08/20 09:11:54;;;;;;;10.38;8.80;;;20.60;83.90;;;;;;5107144;27;20073;-77
2021/08/20 09:14:20;;;;;;;5.30;4.80;;;20.60;83.80;;;;;;5100752;28;20040;-77
2021/08/20 09:16:47;;;;;;;2.70;2.50;;;20.60;83.90;;;;;;5115860;28;20037;-77
2021/08/20 09:19:19;;;;;;;5.18;3.72;;;20.80;84.00;;;;;;5102141;28;20035;-77
2021/08/20 09:21:53;;;;;;;3.28;2.78;;;21.00;84.00;;;;;;5104458;28;20383;-80
2021/08/20 09:24:39;;;;;;;3.67;3.38;;;21.20;83.40;;;;;;5101799;28;20356;-81
2021/08/20 09:27:14;;;;;;;3.58;3.35;;;21.70;83.10;;;;;;5106766;28;20479;-79
2021/08/20 09:30:06;;;;;;;4.85;4.45;;;22.60;82.20;;;;;;5092738;28;20036;-79
2021/08/20 09:32:41;;;;;;;4.18;3.88;;;23.70;78.70;;;;;;5113546;28;20043;-79
2021/08/20 09:35:07;;;;;;;6.85;5.43;;;24.20;76.50;;;;;;5105894;28;20066;-79
2021/08/20 09:37:32;;;;;;;5.63;5.20;;;24.40;74.70;;;;;;5091511;28;20047;-79
2021/08/20 09:40:06;;;;;;;5.72;5.18;;;24.50;74.30;;;;;;5092810;28;20373;-79
2021/08/20 09:42:33;;;;;;;6.10;5.60;;;24.60;74.10;;;;;;5093715;28;20024;-79
2021/08/20 09:45:25;;;;;;;6.45;5.85;;;24.60;73.50;;;;;;5096583;28;20027;-79
2021/08/20 09:47:53;;;;;;;5.93;5.43;;;25.10;72.80;;;;;;5099142;28;20031;-78
2021/08/20 09:50:22;;;;;;;7.70;6.85;;;25.50;71.60;;;;;;5113219;28;20065;-81
2021/08/20 09:52:49;;;;;;;5.95;5.35;;;25.80;70.50;;;;;;5112850;28;20054;-79
2021/08/20 09:55:39;;;;;;;6.40;5.57;;;25.90;69.00;;;;;;5114166;28;20051;-79
2021/08/20 09:58:11;;;;;;;5.35;4.93;;;25.80;68.90;;;;;;5104316;28;20460;-78
2021/08/20 10:00:37;;;;;;;5.97;5.47;;;25.70;68.30;;;;;;5112959;28;20069;-80
2021/08/20 10:03:06;;;;;;;6.55;5.95;;;25.50;68.70;;;;;;5078048;28;20118;-79
2021/08/20 10:05:33;;;;;;;5.65;3.97;;;25.30;68.50;;;;;;5104351;28;20036;-78
2021/08/20 10:08:01;;;;;;;4.43;4.03;;;24.80;68.60;;;;;;5114828;28;20074;-78
2021/08/20 10:10:30;;;;;;;5.50;5.00;;;24.70;69.30;;;;;;5113028;28;20023;-80
2021/08/20 10:12:56;;;;;;;5.25;4.00;;;25.20;70.00;;;;;;5112944;28;20467;-79
2021/08/20 10:15:24;;;;;;;3.53;3.22;;;25.70;68.90;;;;;;5114402;28;20153;-79
2021/08/20 10:17:50;;;;;;;4.53;2.63;;;26.00;67.40;;;;;;5093113;28;20796;-79
2021/08/20 10:20:15;;;;;;;4.03;2.05;;;26.00;66.40;;;;;;5106931;28;20028;-80
2021/08/20 10:22:43;;;;;;;2.55;2.35;;;26.00;65.70;;;;;;5115068;28;20520;-78
2021/08/20 10:25:09;;;;;;;4.47;2.30;;;25.70;66.50;;;;;;5110962;28;20115;-78
2021/08/20 10:27:37;;;;;;;2.00;1.70;;;25.40;66.80;;;;;;5112404;28;20024;-79
2021/08/20 10:30:06;;;;;;;3.88;3.58;;;25.10;67.20;;;;;;5112707;28;20024;-78
2021/08/20 10:32:32;;;;;;;4.40;4.00;;;24.90;68.10;;;;;;5112291;28;20088;-77
2021/08/20 10:34:58;;;;;;;4.88;4.28;;;24.90;67.70;;;;;;5109618;28;20032;-79
2021/08/20 10:37:31;;;;;;;3.03;2.58;;;25.00;67.70;;;;;;5113304;28;20020;-78
2021/08/20 10:40:13;;;;;;;2.83;2.30;;;25.20;67.10;;;;;;5112460;28;20478;-78
2021/08/20 10:42:41;;;;;;;3.30;2.50;;;25.20;66.80;;;;;;5112985;28;20076;-78
2021/08/20 10:45:08;;;;;;;3.17;2.88;;;25.20;66.60;;;;;;5112198;28;20028;-77
2021/08/20 10:47:33;;;;;;;5.95;4.38;;;25.40;66.80;;;;;;5113301;28;20102;-78
2021/08/20 10:50:10;;;;;;;2.80;2.50;;;25.50;66.30;;;;;;5095404;28;20143;-78
2021/08/20 10:52:41;;;;;;;3.13;2.58;;;25.70;66.40;;;;;;5112766;28;20092;-78
2021/08/20 10:55:10;;;;;;;3.20;2.70;;;25.80;66.10;;;;;;5095244;28;20032;-78
2021/08/20 10:57:38;;;;;;;2.22;1.70;;;25.70;65.60;;;;;;5111676;28;20020;-78
2021/08/20 11:00:05;;;;;;;2.65;1.55;;;25.50;65.50;;;;;;5111501;28;20118;-78
2021/08/20 11:02:31;;;;;;;2.33;1.73;;;25.50;65.30;;;;;;5111687;28;20081;-80
2021/08/20 11:05:05;;;;;;;2.33;1.80;;;25.30;65.20;;;;;;5112686;28;20036;-79
2021/08/20 11:07:37;;;;;;;2.28;1.50;;;25.10;65.90;;;;;;5110830;28;20096;-85
2021/08/20 11:10:08;;;;;;;3.40;1.35;;;25.00;66.20;;;;;;5111799;28;20027;-78
2021/08/20 11:12:44;;;;;;;1.65;1.27;;;24.70;66.40;;;;;;5114069;28;20020;-82
2021/08/20 11:15:22;;;;;;;2.85;1.30;;;24.60;66.50;;;;;;5098285;28;20379;-77
2021/08/20 11:17:52;;;;;;;1.30;1.08;;;24.50;66.70;;;;;;5109449;28;20058;-78
2021/08/20 11:20:22;;;;;;;2.40;1.48;;;24.60;67.00;;;;;;5111020;28;20024;-79
2021/08/20 11:25:41;;;;;;;3.22;1.80;;;24.70;66.90;;;;;;5110813;28;20088;-84
2021/08/20 11:28:21;;;;;;;2.78;1.55;;;25.00;66.60;;;;;;5111507;28;20125;-77
2021/08/20 11:30:57;;;;;;;1.88;1.35;;;25.20;65.90;;;;;;5110083;28;20114;-79
2021/08/20 11:33:32;;;;;;;2.35;1.30;;;25.40;65.60;;;;;;5109958;28;20479;-78
2021/08/20 11:36:07;;;;;;;2.78;1.10;;;25.50;65.00;;;;;;5109825;28;20032;-78
2021/08/20 11:38:39;;;;;;;2.10;1.10;;;25.70;64.80;;;;;;5110926;28;20084;-82
2021/08/20 11:41:12;;;;;;;1.35;0.93;;;26.00;64.10;;;;;;5111520;28;20020;-77
2021/08/20 11:43:49;;;;;;;1.27;0.70;;;26.30;63.50;;;;;;5109275;28;20062;-82
2021/08/20 11:46:15;;;;;;;1.88;0.80;;;26.60;63.00;;;;;;5111026;28;20019;-78
2021/08/20 11:48:49;;;;;;;1.40;0.85;;;26.90;62.30;;;;;;5110434;28;20027;-78
2021/08/20 11:51:25;;;;;;;1.48;0.80;;;27.10;61.80;;;;;;5097010;28;20398;-78
2021/08/20 11:53:51;;;;;;;2.13;0.60;;;27.30;60.70;;;;;;5112066;28;20115;-77
2021/08/20 11:56:17;;;;;;;1.52;0.52;;;27.20;60.10;;;;;;5112275;28;20114;-77
2021/08/20 11:58:44;;;;;;;1.75;0.95;;;27.10;60.50;;;;;;5111893;28;20063;-77
2021/08/20 12:01:20;;;;;;;2.20;0.80;;;27.10;60.70;;;;;;5110988;28;20020;-77
2021/08/20 12:03:52;;;;;;;1.80;0.70;;;27.00;60.40;;;;;;5110835;28;20026;-76
2021/08/20 12:06:18;;;;;;;1.10;0.50;;;26.90;60.20;;;;;;5112786;28;20463;-77
2021/08/20 12:08:45;;;;;;;0.95;0.60;;;26.70;60.50;;;;;;5110632;28;20048;-75
2021/08/20 12:11:12;;;;;;;2.22;0.80;;;26.60;60.90;;;;;;5113605;28;20034;-76
2021/08/20 12:13:46;;;;;;;1.52;0.60;;;26.50;61.10;;;;;;5114307;28;20027;-82
2021/08/20 12:16:29;;;;;;;2.00;0.80;;;26.50;61.10;;;;;;5095602;28;20020;-77
2021/08/20 12:18:55;;;;;;;1.25;0.50;;;26.50;61.50;;;;;;5093938;28;20115;-77
2021/08/20 12:21:20;;;;;;;1.67;0.55;;;26.60;61.00;;;;;;5094457;28;20528;-77
2021/08/20 12:23:58;;;;;;;1.02;0.60;;;26.60;61.10;;;;;;5111867;28;20471;-78
2021/08/20 12:26:23;;;;;;;1.35;0.75;;;26.60;61.30;;;;;;5113168;28;20020;-77
2021/08/20 12:28:50;;;;;;;1.38;0.50;;;26.60;60.50;;;;;;5114433;28;20028;-77
2021/08/20 12:31:23;;;;;;;2.00;0.60;;;26.60;60.70;;;;;;5096949;28;20141;-77
2021/08/20 12:34:05;;;;;;;3.72;0.50;;;26.70;60.30;;;;;;5114104;28;20047;-78
2021/08/20 12:36:31;;;;;;;2.47;0.63;;;26.80;60.00;;;;;;5113749;28;20020;-77
2021/08/20 12:39:08;;;;;;;1.48;0.85;;;26.90;60.20;;;;;;5113279;27;20043;-78
2021/08/20 12:41:34;;;;;;;2.47;0.93;;;26.90;59.90;;;;;;5113620;28;20101;-77